Terminal Aerodrome Forecast
Issued by NWS

Home | Current Version | Previous Version | Text Only | Print | Product List | Glossary On
Versions: 1 2 3 4 5 6 7 8 9 10 11 12 13 14 15
000
FTUS43 KPAH 282335
TAFOWB
TAF
KOWB 282335Z 2900/2924 32007KT P6SM SCT050
     FM290230 33005KT P6SM VCSH BKN035
     FM290500 33006KT P6SM OVC040
     FM291030 30010KT 5SM -SHRA OVC018
     FM292100 34010KT P6SM VCSH OVC050
      AMD NOT SKED 2903/2911=

USA.gov is the U.S. government's official web portal to all federal, state and local government web resources and services.